createdAt,value
2018-09-03T00:01:56.158Z,14.50
2018-09-03T00:04:23.815Z,14.50
2018-09-03T00:06:51.379Z,14.50
2018-09-03T00:09:18.968Z,14.40
2018-09-03T00:11:46.636Z,14.50
2018-09-03T00:14:14.467Z,14.40
2018-09-03T00:16:42.170Z,14.40
2018-09-03T00:19:09.759Z,14.40
2018-09-03T00:21:37.328Z,14.50
2018-09-03T00:24:05.026Z,14.40
2018-09-03T00:26:32.593Z,14.50
2018-09-03T00:29:00.206Z,14.50
2018-09-03T00:31:33.394Z,14.50
2018-09-03T00:34:06.755Z,14.50
2018-09-03T00:36:40.080Z,14.50
2018-09-03T00:39:13.414Z,14.50
2018-09-03T00:41:46.622Z,14.50
2018-09-03T00:44:19.861Z,14.50
2018-09-03T00:46:53.544Z,14.50
2018-09-03T00:49:21.201Z,14.50
2018-09-03T00:51:48.791Z,14.50
2018-09-03T00:54:16.420Z,14.50
2018-09-03T00:56:44.028Z,14.50
2018-09-03T00:59:11.816Z,14.50
2018-09-03T01:01:39.352Z,14.50
2018-09-03T01:04:06.925Z,14.50
2018-09-03T01:06:34.580Z,14.50
2018-09-03T01:09:02.215Z,14.50
2018-09-03T01:11:29.882Z,14.50
2018-09-03T01:13:57.530Z,14.50
2018-09-03T01:16:25.107Z,14.40
2018-09-03T01:18:55.277Z,14.40
2018-09-03T01:21:23.347Z,14.50
2018-09-03T01:23:50.963Z,14.40
2018-09-03T01:26:18.593Z,14.40
2018-09-03T01:28:46.261Z,14.50
2018-09-03T01:31:17.653Z,14.50
2018-09-03T01:33:46.088Z,14.40
2018-09-03T01:36:13.640Z,14.40
2018-09-03T01:38:41.200Z,14.40
2018-09-03T01:41:09.096Z,14.40
2018-09-03T01:43:36.644Z,14.50
2018-09-03T01:46:04.443Z,14.50
2018-09-03T01:48:32.021Z,14.50
2018-09-03T01:50:59.588Z,14.50
2018-09-03T01:53:27.148Z,14.50
2018-09-03T01:55:55.019Z,14.50
2018-09-03T01:58:22.648Z,14.50
2018-09-03T02:00:50.287Z,14.50
2018-09-03T02:03:17.910Z,14.50
2018-09-03T02:05:45.513Z,14.50
2018-09-03T02:08:13.071Z,14.50
2018-09-03T02:10:40.916Z,14.50
2018-09-03T02:13:08.560Z,14.50
2018-09-03T02:15:36.136Z,14.50
2018-09-03T02:18:03.828Z,14.50
2018-09-03T02:20:31.444Z,14.50
2018-09-03T02:22:59.137Z,14.50
2018-09-03T02:25:27.003Z,14.50
2018-09-03T02:27:54.597Z,14.50
2018-09-03T02:30:22.195Z,14.50
2018-09-03T02:32:49.881Z,14.50
2018-09-03T02:35:17.764Z,14.50
2018-09-03T02:37:45.595Z,14.50
2018-09-03T02:40:13.236Z,14.50
2018-09-03T02:42:40.868Z,14.50
2018-09-03T02:45:09.296Z,14.50
2018-09-03T02:47:36.933Z,14.50
2018-09-03T02:50:04.764Z,14.50
2018-09-03T02:52:32.412Z,14.50
2018-09-03T02:55:00.032Z,14.50
2018-09-03T02:57:27.606Z,14.50
2018-09-03T02:59:55.304Z,14.50
2018-09-03T03:02:22.881Z,14.50
2018-09-03T03:04:50.452Z,14.50
2018-09-03T03:07:18.076Z,14.50
2018-09-03T03:09:45.802Z,14.50
2018-09-03T03:12:17.996Z,14.50
2018-09-03T03:14:45.684Z,14.50
2018-09-03T03:17:13.286Z,14.50
2018-09-03T03:19:40.901Z,14.50
2018-09-03T03:22:08.424Z,14.50
2018-09-03T03:24:35.967Z,14.50
2018-09-03T03:27:03.636Z,14.50
2018-09-03T03:29:31.380Z,14.50
2018-09-03T03:31:58.928Z,14.50
2018-09-03T03:34:26.485Z,14.50
2018-09-03T03:36:54.268Z,14.50
2018-09-03T03:39:21.831Z,14.50
2018-09-03T03:41:49.377Z,14.50
2018-09-03T03:44:17.355Z,14.50
2018-09-03T03:46:45.220Z,14.50
2018-09-03T03:49:12.842Z,14.60
2018-09-03T03:51:40.428Z,14.50
2018-09-03T03:54:07.982Z,14.50
2018-09-03T03:56:35.543Z,14.50
2018-09-03T03:59:03.251Z,14.50
2018-09-03T04:01:30.845Z,14.50
2018-09-03T04:03:58.456Z,14.50
2018-09-03T04:06:25.996Z,14.50
2018-09-03T04:08:53.731Z,14.50
2018-09-03T04:11:21.367Z,14.50
2018-09-03T04:13:48.903Z,14.50
2018-09-03T04:16:16.742Z,14.50
2018-09-03T04:18:44.320Z,14.50
2018-09-03T04:21:11.909Z,14.50
2018-09-03T04:23:39.527Z,14.50
2018-09-03T04:26:07.056Z,14.60
2018-09-03T04:28:34.637Z,14.50
2018-09-03T04:31:02.308Z,14.60
2018-09-03T04:33:29.844Z,14.50
2018-09-03T04:35:57.419Z,14.60
2018-09-03T04:38:25.202Z,14.50
2018-09-03T04:40:52.748Z,14.60
2018-09-03T04:43:20.416Z,14.60
2018-09-03T04:45:47.991Z,14.50
2018-09-03T04:48:15.659Z,14.50
2018-09-03T04:50:43.230Z,14.50
2018-09-03T04:53:10.911Z,14.50
2018-09-03T04:55:38.491Z,14.50
2018-09-03T04:58:06.136Z,14.50
2018-09-03T05:00:33.739Z,14.50
2018-09-03T05:03:01.320Z,14.50
2018-09-03T05:05:28.855Z,14.50
2018-09-03T05:07:56.424Z,14.50
2018-09-03T05:10:23.968Z,14.50
2018-09-03T05:12:51.536Z,14.50
2018-09-03T05:15:19.272Z,14.50
2018-09-03T05:17:46.900Z,14.50
2018-09-03T05:20:14.669Z,14.60
2018-09-03T05:22:42.284Z,14.60
2018-09-03T05:25:09.802Z,14.60
2018-09-03T05:27:37.513Z,14.60
2018-09-03T05:30:05.890Z,14.60
2018-09-03T05:32:33.432Z,14.60
2018-09-03T05:35:01.028Z,14.60
2018-09-03T05:37:28.568Z,14.60
2018-09-03T05:39:56.173Z,14.60
2018-09-03T05:42:23.725Z,14.60
2018-09-03T05:44:51.333Z,14.60
2018-09-03T05:47:18.931Z,14.60
2018-09-03T05:49:46.549Z,14.60
2018-09-03T05:52:14.139Z,14.60
2018-09-03T05:54:41.676Z,14.60
2018-09-03T05:57:09.557Z,14.60
2018-09-03T05:59:37.188Z,14.60
2018-09-03T06:02:04.768Z,14.60
2018-09-03T06:04:32.455Z,14.60
2018-09-03T06:07:00.074Z,14.60
2018-09-03T06:09:27.640Z,14.60
2018-09-03T06:11:55.288Z,14.60
2018-09-03T06:14:22.824Z,14.60
2018-09-03T06:16:50.395Z,14.60
2018-09-03T06:19:18.043Z,14.70
2018-09-03T06:21:45.720Z,14.70
2018-09-03T06:24:13.358Z,14.70
2018-09-03T06:26:40.964Z,14.80
2018-09-03T06:29:08.593Z,14.70
2018-09-03T06:31:36.213Z,14.70
2018-09-03T06:34:03.792Z,14.70
2018-09-03T06:36:31.520Z,14.70
2018-09-03T06:38:59.137Z,14.80
2018-09-03T06:41:26.736Z,14.70
2018-09-03T06:43:54.379Z,14.80
2018-09-03T06:46:22.213Z,14.80
2018-09-03T06:48:49.791Z,14.90
2018-09-03T06:51:17.641Z,14.90
2018-09-03T06:53:45.518Z,15.00
2018-09-03T06:56:13.110Z,15.00
2018-09-03T06:58:40.774Z,15.00
2018-09-03T07:01:08.334Z,15.10
2018-09-03T07:03:35.945Z,15.10
2018-09-03T07:06:03.804Z,15.10
2018-09-03T07:08:31.358Z,15.10
2018-09-03T07:10:58.917Z,15.10
2018-09-03T07:13:26.559Z,15.10
2018-09-03T07:15:54.120Z,15.10
2018-09-03T07:18:21.726Z,15.20
2018-09-03T07:20:49.352Z,15.30
2018-09-03T07:23:16.913Z,15.30
2018-09-03T07:25:44.500Z,15.40
2018-09-03T07:28:12.131Z,15.40
2018-09-03T07:30:39.699Z,15.40
2018-09-03T07:33:07.254Z,15.50
2018-09-03T07:35:34.893Z,15.50
2018-09-03T07:38:02.452Z,15.50
2018-09-03T07:40:30.016Z,15.60
2018-09-03T07:42:57.711Z,15.60
2018-09-03T07:45:25.239Z,15.60
2018-09-03T07:47:52.951Z,15.60
2018-09-03T07:50:20.560Z,15.60
2018-09-03T07:52:48.462Z,15.60
2018-09-03T07:55:16.196Z,15.70
2018-09-03T07:57:43.816Z,15.70
2018-09-03T08:00:12.723Z,15.80
2018-09-03T08:02:40.263Z,15.80
2018-09-03T08:05:08.068Z,15.80
2018-09-03T08:07:35.705Z,15.80
2018-09-03T08:10:03.657Z,15.80
2018-09-03T08:12:31.268Z,15.80
2018-09-03T08:14:58.832Z,15.80
2018-09-03T08:17:26.431Z,15.80
2018-09-03T08:19:54.375Z,15.80
2018-09-03T08:22:21.966Z,15.80
2018-09-03T08:24:49.897Z,15.90
2018-09-03T08:27:17.711Z,15.90
2018-09-03T08:29:45.710Z,15.90
2018-09-03T08:32:13.316Z,16.00
2018-09-03T08:34:40.860Z,16.00
2018-09-03T08:37:08.465Z,16.10
2018-09-03T08:39:36.016Z,16.10
2018-09-03T08:42:03.606Z,16.10
2018-09-03T08:44:31.179Z,16.20
2018-09-03T08:46:58.793Z,16.30
2018-09-03T08:49:26.372Z,16.30
2018-09-03T08:51:53.996Z,16.30
2018-09-03T08:54:21.597Z,16.30
2018-09-03T08:56:49.200Z,16.30
2018-09-03T08:59:16.897Z,16.30
2018-09-03T09:01:44.460Z,16.30
2018-09-03T09:04:12.038Z,16.40
2018-09-03T09:06:39.690Z,16.40
2018-09-03T09:09:07.885Z,16.40
2018-09-03T09:11:35.519Z,16.40
2018-09-03T09:14:03.107Z,16.40
2018-09-03T09:16:30.777Z,16.40
2018-09-03T09:18:58.405Z,16.40
2018-09-03T09:21:25.999Z,16.50
2018-09-03T09:23:53.535Z,16.50
2018-09-03T09:26:21.152Z,16.50
2018-09-03T09:28:48.685Z,16.50
2018-09-03T09:31:16.216Z,16.60
2018-09-03T09:33:43.830Z,16.60
2018-09-03T09:36:11.388Z,16.60
2018-09-03T09:38:38.973Z,16.60
2018-09-03T09:41:06.756Z,16.60
2018-09-03T09:43:34.388Z,16.60
2018-09-03T09:46:01.961Z,16.60
2018-09-03T09:48:30.032Z,16.60
2018-09-03T09:50:57.646Z,16.60
2018-09-03T09:53:25.269Z,16.60
2018-09-03T09:55:52.942Z,16.50
2018-09-03T09:58:20.476Z,16.50
2018-09-03T10:00:53.767Z,16.50
2018-09-03T10:03:21.351Z,16.50
2018-09-03T10:05:48.878Z,16.60
2018-09-03T10:08:16.776Z,16.60
2018-09-03T10:10:44.371Z,16.60
2018-09-03T10:13:11.968Z,16.60
2018-09-03T10:15:39.571Z,16.60
2018-09-03T10:18:07.175Z,16.50
2018-09-03T10:20:34.770Z,16.60
2018-09-03T10:23:02.511Z,16.60
2018-09-03T10:25:30.109Z,16.60
2018-09-03T10:27:57.699Z,16.60
2018-09-03T10:30:25.473Z,16.60
2018-09-03T10:32:53.106Z,16.60
2018-09-03T10:35:20.704Z,16.60
2018-09-03T10:37:48.299Z,16.60
2018-09-03T10:40:15.920Z,16.60
2018-09-03T10:42:43.504Z,16.70
2018-09-03T10:45:11.150Z,16.70
2018-09-03T10:47:38.777Z,16.70
2018-09-03T10:50:06.416Z,16.80
2018-09-03T10:52:34.244Z,16.80
2018-09-03T10:55:02.152Z,16.80
2018-09-03T10:57:29.712Z,16.80
2018-09-03T10:59:57.316Z,16.90
2018-09-03T11:02:25.006Z,16.90
2018-09-03T11:04:52.573Z,16.90
2018-09-03T11:07:20.302Z,17.00
2018-09-03T11:09:47.903Z,17.00
2018-09-03T11:12:15.550Z,17.10
2018-09-03T11:14:43.161Z,17.10
2018-09-03T11:17:10.730Z,17.10
2018-09-03T11:19:44.377Z,17.10
2018-09-03T11:22:12.007Z,17.20
2018-09-03T11:24:39.524Z,17.30
2018-09-03T11:27:07.231Z,17.30
2018-09-03T11:29:34.885Z,17.40
2018-09-03T11:32:02.552Z,17.40
2018-09-03T11:34:30.227Z,17.50
2018-09-03T11:36:58.208Z,17.50
2018-09-03T11:39:25.830Z,17.50
2018-09-03T11:41:54.241Z,17.60
2018-09-03T11:44:21.827Z,17.60
2018-09-03T11:46:49.452Z,17.60
2018-09-03T11:49:17.036Z,17.60
2018-09-03T11:51:44.607Z,17.50
2018-09-03T11:54:12.449Z,17.50
2018-09-03T11:56:40.012Z,17.50
2018-09-03T11:59:07.577Z,17.50
2018-09-03T12:01:35.179Z,17.60
2018-09-03T12:04:02.781Z,17.70
2018-09-03T12:06:30.469Z,17.60
2018-09-03T12:08:58.165Z,17.70
2018-09-03T12:11:25.753Z,17.80
2018-09-03T12:13:53.599Z,17.80
2018-09-03T12:16:25.175Z,17.90
2018-09-03T12:18:55.064Z,17.90
2018-09-03T12:21:22.652Z,17.90
2018-09-03T12:23:50.244Z,17.90
2018-09-03T12:26:18.097Z,17.90
2018-09-03T12:28:45.685Z,17.90
2018-09-03T12:31:13.362Z,18.00
2018-09-03T12:33:41.190Z,18.00
2018-09-03T12:36:08.727Z,18.00
2018-09-03T12:38:36.289Z,18.00
2018-09-03T12:41:05.047Z,18.10
2018-09-03T12:43:32.709Z,18.00
2018-09-03T12:46:03.672Z,18.00
2018-09-03T12:48:31.711Z,18.00
2018-09-03T12:51:00.264Z,18.00
2018-09-03T12:53:28.084Z,18.00
2018-09-03T12:55:55.639Z,18.10
2018-09-03T12:58:23.237Z,18.10
2018-09-03T13:00:50.980Z,18.10
2018-09-03T13:03:18.498Z,18.10
2018-09-03T13:05:46.388Z,18.10
2018-09-03T13:08:14.056Z,18.10
2018-09-03T13:10:41.931Z,18.20
2018-09-03T13:13:09.533Z,18.20
2018-09-03T13:15:37.121Z,18.20
2018-09-03T13:18:04.854Z,18.20
2018-09-03T13:20:32.631Z,18.30
2018-09-03T13:23:00.468Z,18.30
2018-09-03T13:25:28.303Z,18.40
2018-09-03T13:27:55.894Z,18.40
2018-09-03T13:30:23.547Z,18.40
2018-09-03T13:32:51.454Z,18.40
2018-09-03T13:35:19.147Z,18.40
2018-09-03T13:37:46.791Z,18.50
2018-09-03T13:40:14.417Z,18.60
2018-09-03T13:42:41.985Z,18.60
2018-09-03T13:45:09.599Z,18.60
2018-09-03T13:47:37.138Z,18.70
2018-09-03T13:50:05.261Z,18.70
2018-09-03T13:52:33.069Z,18.70
2018-09-03T13:55:00.672Z,18.70
2018-09-03T13:57:28.226Z,18.70
2018-09-03T13:59:55.820Z,18.70
2018-09-03T14:02:23.360Z,18.70
2018-09-03T14:04:51.039Z,18.80
2018-09-03T14:07:18.600Z,18.70
2018-09-03T14:09:46.347Z,18.80
2018-09-03T14:12:14.078Z,18.80
2018-09-03T14:14:41.695Z,18.80
2018-09-03T14:17:09.334Z,18.80
2018-09-03T14:19:36.942Z,18.80
2018-09-03T14:22:04.815Z,18.80
2018-09-03T14:24:32.467Z,18.80
2018-09-03T14:27:00.140Z,18.80
2018-09-03T14:29:27.791Z,18.80
2018-09-03T14:31:55.369Z,18.80
2018-09-03T14:34:23.045Z,18.80
2018-09-03T14:36:51.026Z,18.80
2018-09-03T14:39:19.463Z,18.80
2018-09-03T14:41:47.125Z,18.80
2018-09-03T14:44:15.144Z,18.90
2018-09-03T14:46:42.706Z,18.90
2018-09-03T14:49:10.346Z,18.90
2018-09-03T14:51:37.980Z,18.90
2018-09-03T14:54:05.567Z,19.00
2018-09-03T14:56:33.385Z,19.00
2018-09-03T14:59:00.956Z,19.00
2018-09-03T15:01:28.533Z,19.00
2018-09-03T15:03:56.306Z,19.00
2018-09-03T15:06:23.905Z,19.00
2018-09-03T15:08:51.473Z,19.00
2018-09-03T15:11:19.116Z,19.00
2018-09-03T15:13:50.009Z,19.00
2018-09-03T15:16:17.874Z,19.00
2018-09-03T15:18:45.489Z,19.00
2018-09-03T15:21:13.054Z,19.00
2018-09-03T15:23:40.701Z,19.10
2018-09-03T15:26:08.355Z,19.10
2018-09-03T15:28:35.856Z,19.10
2018-09-03T15:31:03.467Z,19.10
2018-09-03T15:33:31.101Z,19.10
2018-09-03T15:35:58.696Z,19.10
2018-09-03T15:38:26.508Z,19.10
2018-09-03T15:40:54.247Z,19.00
2018-09-03T15:43:21.863Z,19.10
2018-09-03T15:45:49.367Z,19.00
2018-09-03T15:48:17.181Z,19.10
2018-09-03T15:50:44.795Z,19.00
2018-09-03T15:53:12.352Z,19.00
2018-09-03T15:55:40.000Z,19.10
2018-09-03T15:58:07.546Z,19.00
2018-09-03T16:00:35.117Z,19.00
2018-09-03T16:03:02.751Z,19.00
2018-09-03T16:05:30.271Z,19.00
2018-09-03T16:07:57.885Z,19.00
2018-09-03T16:10:25.459Z,19.00
2018-09-03T16:12:53.076Z,19.00
2018-09-03T16:15:20.728Z,19.00
2018-09-03T16:17:48.346Z,19.00
2018-09-03T16:20:15.881Z,19.00
2018-09-03T16:22:43.527Z,18.90
2018-09-03T16:25:11.132Z,18.90
2018-09-03T16:27:38.689Z,18.90
2018-09-03T16:30:06.368Z,18.90
2018-09-03T16:32:33.925Z,18.90
2018-09-03T16:35:01.515Z,18.80
2018-09-03T16:37:29.068Z,18.80
2018-09-03T16:39:56.856Z,18.80
2018-09-03T16:42:24.558Z,18.80
2018-09-03T16:44:52.246Z,18.80
2018-09-03T16:47:19.810Z,18.80
2018-09-03T16:49:47.392Z,18.80
2018-09-03T16:52:14.957Z,18.70
2018-09-03T16:54:42.513Z,18.80
2018-09-03T16:57:10.129Z,18.80
2018-09-03T16:59:37.688Z,18.80
2018-09-03T17:02:05.320Z,18.80
2018-09-03T17:04:32.932Z,18.80
2018-09-03T17:07:00.565Z,18.80
2018-09-03T17:09:28.446Z,18.80
2018-09-03T17:11:55.988Z,18.80
2018-09-03T17:14:24.102Z,18.80
2018-09-03T17:16:51.823Z,18.70
2018-09-03T17:19:19.425Z,18.80
2018-09-03T17:21:47.022Z,18.70
2018-09-03T17:24:14.683Z,18.70
2018-09-03T17:26:42.921Z,18.70
2018-09-03T17:29:10.461Z,18.70
2018-09-03T17:31:38.853Z,18.70
2018-09-03T17:34:06.428Z,18.60
2018-09-03T17:36:34.016Z,18.60
2018-09-03T17:39:01.625Z,18.50
2018-09-03T17:41:29.168Z,18.50
2018-09-03T17:43:56.793Z,18.40
2018-09-03T17:46:24.319Z,18.30
2018-09-03T17:48:51.895Z,18.30
2018-09-03T17:51:19.725Z,18.30
2018-09-03T17:53:47.390Z,18.20
2018-09-03T17:56:14.988Z,18.20
2018-09-03T17:58:42.723Z,18.10
2018-09-03T18:01:10.290Z,18.00
2018-09-03T18:03:37.998Z,17.90
2018-09-03T18:06:05.711Z,17.80
2018-09-03T18:08:33.314Z,17.80
2018-09-03T18:11:00.898Z,17.80
2018-09-03T18:13:28.446Z,17.70
2018-09-03T18:15:56.057Z,17.60
2018-09-03T18:18:23.697Z,17.60
2018-09-03T18:20:51.256Z,17.50
2018-09-03T18:23:18.848Z,17.40
2018-09-03T18:25:46.745Z,17.40
2018-09-03T18:28:14.720Z,17.30
2018-09-03T18:30:42.420Z,17.30
2018-09-03T18:33:10.331Z,17.20
2018-09-03T18:35:38.029Z,17.20
2018-09-03T18:38:05.620Z,17.10
2018-09-03T18:40:33.227Z,17.10
2018-09-03T18:43:00.876Z,17.10
2018-09-03T18:45:28.461Z,17.10
2018-09-03T18:47:56.234Z,17.00
2018-09-03T18:50:23.799Z,17.00
2018-09-03T18:52:51.437Z,16.90
2018-09-03T18:55:19.209Z,16.80
2018-09-03T18:57:46.775Z,16.80
2018-09-03T19:00:14.408Z,16.80
2018-09-03T19:02:41.930Z,16.70
2018-09-03T19:05:09.802Z,16.60
2018-09-03T19:07:37.759Z,16.50
2018-09-03T19:10:05.388Z,16.50
2018-09-03T19:12:33.217Z,16.40
2018-09-03T19:15:00.803Z,16.40
2018-09-03T19:17:28.378Z,16.30
2018-09-03T19:19:56.421Z,16.30
2018-09-03T19:22:24.359Z,16.30
2018-09-03T19:24:51.863Z,16.30
2018-09-03T19:27:19.643Z,16.30
2018-09-03T19:29:47.243Z,16.20
2018-09-03T19:32:15.169Z,16.20
2018-09-03T19:34:42.832Z,16.10
2018-09-03T19:37:10.427Z,16.10
2018-09-03T19:39:38.028Z,16.00
2018-09-03T19:42:05.882Z,15.90
2018-09-03T19:44:33.629Z,15.90
2018-09-03T19:47:01.248Z,15.80
2018-09-03T19:49:29.028Z,15.80
2018-09-03T19:51:56.645Z,15.80
2018-09-03T19:54:24.235Z,15.80
2018-09-03T19:56:52.129Z,15.80
2018-09-03T19:59:19.728Z,15.70
2018-09-03T20:01:47.379Z,15.60
2018-09-03T20:04:14.980Z,15.60
2018-09-03T20:06:42.648Z,15.70
2018-09-03T20:09:10.359Z,15.60
2018-09-03T20:11:38.392Z,15.50
2018-09-03T20:14:06.397Z,15.40
2018-09-03T20:16:34.020Z,15.40
2018-09-03T20:19:01.715Z,15.40
2018-09-03T20:21:29.312Z,15.30
2018-09-03T20:23:57.451Z,15.30
2018-09-03T20:26:25.022Z,15.30
2018-09-03T20:28:52.746Z,15.30
2018-09-03T20:31:20.336Z,15.20
2018-09-03T20:33:47.891Z,15.10
2018-09-03T20:36:15.939Z,15.10
2018-09-03T20:38:43.504Z,15.10
2018-09-03T20:41:11.077Z,15.10
2018-09-03T20:43:38.714Z,15.00
2018-09-03T20:46:06.320Z,15.00
2018-09-03T20:48:33.950Z,15.00
2018-09-03T20:51:02.102Z,15.00
2018-09-03T20:53:29.815Z,14.90
2018-09-03T20:55:57.355Z,14.90
2018-09-03T20:58:25.002Z,14.90
2018-09-03T21:00:52.539Z,14.90
2018-09-03T21:03:20.295Z,14.90
2018-09-03T21:05:47.849Z,14.80
2018-09-03T21:08:15.543Z,14.80
2018-09-03T21:10:43.129Z,14.70
2018-09-03T21:13:10.705Z,14.70
2018-09-03T21:15:38.394Z,14.60
2018-09-03T21:18:06.119Z,14.60
2018-09-03T21:20:33.728Z,14.70
2018-09-03T21:23:01.823Z,14.60
2018-09-03T21:25:29.402Z,14.60
2018-09-03T21:27:56.943Z,14.60
2018-09-03T21:30:24.961Z,14.60
2018-09-03T21:32:52.718Z,14.50
2018-09-03T21:35:20.425Z,14.50
2018-09-03T21:37:48.380Z,14.40
2018-09-03T21:40:16.386Z,14.40
2018-09-03T21:42:44.413Z,14.40
2018-09-03T21:45:11.956Z,14.40
2018-09-03T21:47:39.611Z,14.30
2018-09-03T21:50:07.636Z,14.30
2018-09-03T21:52:35.277Z,14.30
2018-09-03T21:55:02.847Z,14.30
2018-09-03T21:57:30.395Z,14.30
2018-09-03T21:59:58.019Z,14.30
2018-09-03T22:02:25.695Z,14.30
2018-09-03T22:04:53.252Z,14.20
2018-09-03T22:07:20.844Z,14.20
2018-09-03T22:09:48.413Z,14.10
2018-09-03T22:12:16.144Z,14.10
2018-09-03T22:14:43.691Z,14.00
2018-09-03T22:17:11.459Z,14.00
2018-09-03T22:19:39.041Z,13.90
2018-09-03T22:22:06.675Z,13.90
2018-09-03T22:24:34.364Z,13.80
2018-09-03T22:27:01.966Z,13.80
2018-09-03T22:29:29.545Z,13.80
2018-09-03T22:31:57.366Z,13.80
2018-09-03T22:34:24.951Z,13.80
2018-09-03T22:36:52.555Z,13.80
2018-09-03T22:39:20.470Z,13.80
2018-09-03T22:41:48.012Z,13.70
2018-09-03T22:44:15.574Z,13.60
2018-09-03T22:46:43.197Z,13.60
2018-09-03T22:49:10.781Z,13.60
2018-09-03T22:51:39.068Z,13.60
2018-09-03T22:54:06.654Z,13.60
2018-09-03T22:56:34.251Z,13.60
2018-09-03T22:59:01.800Z,13.60
2018-09-03T23:01:29.422Z,13.50
2018-09-03T23:03:57.134Z,13.40
2018-09-03T23:06:24.725Z,13.40
2018-09-03T23:08:52.310Z,13.40
2018-09-03T23:11:20.151Z,13.40
2018-09-03T23:13:47.732Z,13.40
2018-09-03T23:16:15.384Z,13.50
2018-09-03T23:18:43.503Z,13.40
2018-09-03T23:21:11.198Z,13.20
2018-09-03T23:23:38.812Z,13.20
2018-09-03T23:26:06.569Z,13.20
2018-09-03T23:28:34.138Z,13.10
2018-09-03T23:31:01.716Z,13.10
2018-09-03T23:33:29.336Z,13.10
2018-09-03T23:35:56.907Z,13.10
2018-09-03T23:38:24.453Z,13.10
2018-09-03T23:40:52.060Z,13.10
2018-09-03T23:43:19.629Z,13.10
2018-09-03T23:45:47.228Z,13.10
2018-09-03T23:48:15.008Z,13.10
2018-09-03T23:50:42.632Z,13.10
2018-09-03T23:53:10.284Z,13.00
2018-09-03T23:55:37.936Z,13.00
2018-09-03T23:58:05.605Z,13.00
